createdAt,value
2019-04-25T00:01:26.890Z,14.60
2019-04-25T00:03:56.174Z,14.60
2019-04-25T00:06:25.946Z,14.50
2019-04-25T00:08:55.233Z,14.50
2019-04-25T00:11:24.905Z,14.50
2019-04-25T00:13:54.297Z,14.50
2019-04-25T00:16:25.870Z,14.50
2019-04-25T00:18:55.135Z,14.40
2019-04-25T00:21:43.355Z,14.40
2019-04-25T00:24:31.815Z,14.40
2019-04-25T00:27:02.192Z,14.40
2019-04-25T00:29:31.970Z,14.40
2019-04-25T00:32:01.746Z,14.40
2019-04-25T00:34:31.658Z,14.40
2019-04-25T00:37:02.579Z,14.40
2019-04-25T00:39:32.088Z,14.40
2019-04-25T00:42:02.350Z,14.40
2019-04-25T00:44:32.096Z,14.40
2019-04-25T00:47:02.470Z,14.40
2019-04-25T00:49:32.300Z,14.40
2019-04-25T00:52:02.086Z,14.40
2019-04-25T00:54:31.557Z,14.40
2019-04-25T00:57:02.160Z,14.40
2019-04-25T00:59:49.282Z,14.30
2019-04-25T01:02:33.113Z,14.30
2019-04-25T01:05:02.626Z,14.30
2019-04-25T01:07:32.374Z,14.30
2019-04-25T01:10:02.888Z,14.30
2019-04-25T01:12:32.232Z,14.30
2019-04-25T01:15:01.765Z,14.30
2019-04-25T01:17:31.645Z,14.40
2019-04-25T01:20:00.916Z,14.30
2019-04-25T01:22:30.182Z,14.30
2019-04-25T01:24:59.461Z,14.30
2019-04-25T01:27:28.754Z,14.30
2019-04-25T01:29:58.018Z,14.30
2019-04-25T01:32:35.369Z,14.30
2019-04-25T01:35:21.107Z,14.30
2019-04-25T01:38:13.907Z,14.30
2019-04-25T01:40:57.342Z,14.40
2019-04-25T01:43:59.622Z,14.40
2019-04-25T01:46:29.361Z,14.40
2019-04-25T01:48:58.729Z,14.40
2019-04-25T01:51:28.206Z,14.40
2019-04-25T01:53:57.473Z,14.40
2019-04-25T01:56:26.758Z,14.40
2019-04-25T01:58:56.030Z,14.40
2019-04-25T02:01:25.281Z,14.40
2019-04-25T02:03:55.471Z,14.40
2019-04-25T02:06:24.947Z,14.40
2019-04-25T02:08:55.223Z,14.40
2019-04-25T02:11:40.814Z,14.40
2019-04-25T02:14:10.449Z,14.40
2019-04-25T02:16:39.750Z,14.40
2019-04-25T02:19:09.065Z,14.40
2019-04-25T02:21:38.430Z,14.40
2019-04-25T02:24:07.824Z,14.40
2019-04-25T02:26:37.073Z,14.40
2019-04-25T02:29:06.426Z,14.40
2019-04-25T02:31:35.697Z,14.40
2019-04-25T02:34:08.378Z,14.40
2019-04-25T02:36:35.976Z,14.40
2019-04-25T02:39:10.838Z,14.40
2019-04-25T02:41:40.109Z,14.30
2019-04-25T02:44:10.219Z,14.30
2019-04-25T02:47:00.571Z,14.30
2019-04-25T02:49:40.058Z,14.30
2019-04-25T02:52:18.088Z,14.30
2019-04-25T02:54:47.710Z,14.20
2019-04-25T02:57:17.003Z,14.20
2019-04-25T02:59:46.315Z,14.20
2019-04-25T03:02:15.985Z,14.20
2019-04-25T03:04:45.411Z,14.20
2019-04-25T03:07:17.506Z,14.20
2019-04-25T03:09:45.793Z,14.20
2019-04-25T03:12:29.623Z,14.10
2019-04-25T03:14:46.254Z,14.20
2019-04-25T03:17:15.545Z,14.10
2019-04-25T03:20:16.073Z,14.10
2019-04-25T03:22:45.339Z,14.20
2019-04-25T03:25:17.490Z,14.10
2019-04-25T03:27:45.966Z,14.10
2019-04-25T03:30:17.926Z,14.10
2019-04-25T03:32:46.964Z,14.10
2019-04-25T03:35:16.214Z,14.10
2019-04-25T03:37:45.549Z,14.10
2019-04-25T03:40:14.966Z,14.10
2019-04-25T03:42:44.229Z,14.10
2019-04-25T03:45:14.799Z,14.10
2019-04-25T03:47:44.209Z,14.10
2019-04-25T03:50:13.951Z,14.00
2019-04-25T03:52:43.656Z,14.00
2019-04-25T03:55:14.411Z,14.00
2019-04-25T03:57:44.341Z,14.10
2019-04-25T04:00:14.662Z,14.10
2019-04-25T04:02:44.437Z,14.10
2019-04-25T04:05:14.907Z,14.20
2019-04-25T04:07:44.422Z,14.20
2019-04-25T04:10:15.142Z,14.20
2019-04-25T04:12:44.881Z,14.30
2019-04-25T04:15:15.849Z,14.30
2019-04-25T04:18:05.945Z,14.40
2019-04-25T04:20:53.990Z,14.40
2019-04-25T04:23:33.206Z,14.50
2019-04-25T04:26:03.323Z,14.50
2019-04-25T04:28:33.716Z,14.60
2019-04-25T04:31:03.701Z,14.60
2019-04-25T04:33:34.609Z,14.70
2019-04-25T04:36:04.034Z,14.70
2019-04-25T04:38:34.209Z,14.80
2019-04-25T04:41:04.025Z,14.80
2019-04-25T04:43:34.227Z,14.90
2019-04-25T04:46:04.030Z,15.00
2019-04-25T04:48:34.205Z,15.00
2019-04-25T04:51:03.611Z,15.10
2019-04-25T04:53:35.616Z,15.20
2019-04-25T04:56:04.271Z,15.30
2019-04-25T04:58:34.302Z,15.40
2019-04-25T05:01:10.230Z,15.50
2019-04-25T05:03:56.107Z,15.60
2019-04-25T05:06:31.387Z,15.70
2019-04-25T05:09:08.901Z,15.90
2019-04-25T05:11:38.281Z,16.00
2019-04-25T05:14:07.635Z,16.20
2019-04-25T05:16:36.961Z,16.30
2019-04-25T05:19:06.241Z,16.40
2019-04-25T05:21:35.549Z,16.50
2019-04-25T05:24:04.967Z,16.60
2019-04-25T05:26:34.244Z,16.80
2019-04-25T05:29:03.712Z,16.90
2019-04-25T05:31:48.577Z,17.00
2019-04-25T05:34:18.292Z,17.10
2019-04-25T05:36:47.782Z,17.20
2019-04-25T05:39:18.051Z,17.20
2019-04-25T05:42:07.730Z,17.30
2019-04-25T05:44:37.192Z,17.30
2019-04-25T05:47:06.502Z,17.40
2019-04-25T05:49:35.817Z,17.50
2019-04-25T05:52:05.105Z,17.60
2019-04-25T05:54:34.575Z,17.70
2019-04-25T05:57:04.007Z,17.80
2019-04-25T05:59:33.815Z,17.90
2019-04-25T06:02:03.906Z,18.00
2019-04-25T06:04:33.677Z,18.10
2019-04-25T06:07:03.134Z,18.20
2019-04-25T06:09:54.608Z,18.40
2019-04-25T06:12:45.801Z,18.60
2019-04-25T06:15:15.418Z,18.70
2019-04-25T06:18:19.762Z,18.90
2019-04-25T06:20:50.002Z,18.90
2019-04-25T06:23:39.461Z,19.00
2019-04-25T06:26:22.834Z,19.10
2019-04-25T06:28:53.606Z,19.10
2019-04-25T06:31:21.405Z,19.20
2019-04-25T06:34:14.153Z,19.20
2019-04-25T06:37:10.170Z,19.20
2019-04-25T06:39:47.698Z,19.20
2019-04-25T06:42:21.145Z,19.20
2019-04-25T06:45:16.149Z,19.30
2019-04-25T06:47:59.383Z,19.30
2019-04-25T06:50:29.053Z,19.40
2019-04-25T06:52:58.565Z,19.60
2019-04-25T06:55:30.159Z,19.70
2019-04-25T06:58:09.192Z,19.80
2019-04-25T07:00:40.555Z,19.80
2019-04-25T07:03:07.121Z,19.80
2019-04-25T07:05:40.551Z,19.90
2019-04-25T07:08:10.260Z,19.90
2019-04-25T07:10:41.085Z,19.90
2019-04-25T07:13:19.069Z,19.90
2019-04-25T07:15:56.621Z,19.90
2019-04-25T07:18:30.516Z,19.80
2019-04-25T07:20:57.239Z,19.80
2019-04-25T07:23:26.530Z,19.90
2019-04-25T07:26:21.238Z,19.90
2019-04-25T07:29:17.714Z,20.00
2019-04-25T07:32:14.463Z,20.00
2019-04-25T07:34:43.822Z,20.00
2019-04-25T07:37:13.383Z,20.00
2019-04-25T07:39:44.182Z,20.10
2019-04-25T07:42:14.072Z,20.10
2019-04-25T07:44:52.151Z,20.20
2019-04-25T07:47:16.056Z,20.30
2019-04-25T07:49:45.429Z,20.40
2019-04-25T07:52:14.718Z,20.50
2019-04-25T07:54:44.079Z,20.70
2019-04-25T07:57:14.254Z,20.90
2019-04-25T07:59:43.699Z,21.00
2019-04-25T08:02:16.437Z,21.20
2019-04-25T08:04:45.701Z,21.40
2019-04-25T08:07:31.617Z,21.50
2019-04-25T08:10:04.093Z,21.70
2019-04-25T08:12:37.578Z,21.90
2019-04-25T08:15:15.450Z,22.10
2019-04-25T08:18:04.061Z,22.60
2019-04-25T08:20:34.747Z,26.30
2019-04-25T08:23:05.388Z,30.30
2019-04-25T08:25:39.197Z,32.20
2019-04-25T08:28:07.481Z,33.00
2019-04-25T08:30:38.030Z,33.70
2019-04-25T08:33:07.673Z,34.90
2019-04-25T08:35:38.088Z,36.30
2019-04-25T08:38:07.591Z,37.40
2019-04-25T08:40:40.405Z,37.90
2019-04-25T08:43:11.050Z,38.00
2019-04-25T08:45:40.458Z,37.60
2019-04-25T08:48:09.836Z,36.60
2019-04-25T08:50:45.497Z,35.90
2019-04-25T08:53:20.620Z,37.10
2019-04-25T08:56:04.909Z,37.80
2019-04-25T08:59:05.513Z,39.10
2019-04-25T09:01:45.135Z,40.70
2019-04-25T09:04:25.526Z,41.80
2019-04-25T09:06:54.983Z,42.60
2019-04-25T09:09:24.309Z,43.40
2019-04-25T09:11:55.874Z,43.60
2019-04-25T09:14:27.499Z,42.80
2019-04-25T09:17:00.922Z,43.40
2019-04-25T09:19:30.245Z,43.90
2019-04-25T09:21:59.881Z,45.20
2019-04-25T09:24:29.171Z,45.50
2019-04-25T09:27:03.766Z,44.70
2019-04-25T09:29:35.398Z,45.00
2019-04-25T09:32:06.379Z,45.60
2019-04-25T09:34:36.221Z,44.10
2019-04-25T09:37:06.991Z,43.60
2019-04-25T09:39:47.590Z,43.30
2019-04-25T09:42:16.906Z,41.90
2019-04-25T09:45:15.203Z,43.30
2019-04-25T09:47:44.825Z,45.00
2019-04-25T09:50:26.677Z,45.50
2019-04-25T09:52:59.808Z,43.40
2019-04-25T09:55:41.740Z,45.20
2019-04-25T09:58:25.361Z,46.30
2019-04-25T10:01:03.834Z,47.60
2019-04-25T10:03:47.424Z,46.80
2019-04-25T10:06:21.389Z,46.50
2019-04-25T10:09:02.382Z,46.40
2019-04-25T10:11:59.703Z,46.60
2019-04-25T10:15:18.962Z,46.70
2019-04-25T10:18:14.114Z,45.60
2019-04-25T10:20:55.131Z,46.60
2019-04-25T10:23:29.290Z,43.50
2019-04-25T10:26:24.211Z,40.80
2019-04-25T10:28:52.503Z,38.20
2019-04-25T10:31:23.741Z,36.10
2019-04-25T10:33:59.872Z,36.40
2019-04-25T10:36:31.403Z,37.40
2019-04-25T10:39:10.315Z,36.00
2019-04-25T10:41:41.534Z,34.30
2019-04-25T10:47:10.459Z,32.20
2019-04-25T10:49:40.643Z,31.10
2019-04-25T10:52:11.470Z,30.40
2019-04-25T10:55:04.195Z,30.10
2019-04-25T10:58:22.518Z,29.80
2019-04-25T11:00:47.200Z,29.10
2019-04-25T11:03:34.835Z,28.60
2019-04-25T11:06:07.574Z,28.30
2019-04-25T11:08:41.941Z,28.30
2019-04-25T11:11:54.962Z,28.20
2019-04-25T11:30:46.519Z,27.80
2019-04-25T11:33:44.003Z,28.00
2019-04-25T11:36:11.032Z,27.90
2019-04-25T11:41:26.838Z,27.70
2019-04-25T11:42:37.715Z,27.40
2019-04-25T11:45:09.509Z,26.90
2019-04-25T11:48:23.882Z,26.60
2019-04-25T11:50:55.856Z,26.40
2019-04-25T11:54:30.281Z,26.40
2019-04-25T11:57:34.852Z,26.40
2019-04-25T12:00:07.391Z,26.40
2019-04-25T12:07:11.898Z,26.30
2019-04-25T12:09:42.883Z,26.20
2019-04-25T12:12:14.668Z,26.20
2019-04-25T12:14:55.289Z,26.10
2019-04-25T12:17:35.397Z,26.20
2019-04-25T12:20:25.659Z,26.20
2019-04-25T12:26:24.248Z,26.10
2019-04-25T12:29:04.387Z,26.00
2019-04-25T12:35:06.646Z,26.00
2019-04-25T12:37:36.008Z,26.00
2019-04-25T12:40:08.263Z,26.00
2019-04-25T12:42:39.059Z,26.10
2019-04-25T12:45:30.416Z,26.10
2019-04-25T12:48:23.443Z,26.00
2019-04-25T12:50:56.735Z,26.00
2019-04-25T12:53:26.020Z,26.00
2019-04-25T12:55:56.126Z,26.00
2019-04-25T12:58:25.621Z,26.00
2019-04-25T13:01:08.188Z,26.00
2019-04-25T13:03:45.091Z,25.90
2019-04-25T13:06:17.676Z,25.90
2019-04-25T13:08:51.206Z,26.00
2019-04-25T13:11:23.971Z,26.00
2019-04-25T13:13:58.931Z,26.10
2019-04-25T13:16:38.907Z,26.20
2019-04-25T13:19:19.794Z,26.40
2019-04-25T13:21:43.371Z,26.50
2019-04-25T13:24:12.913Z,26.60
2019-04-25T13:26:57.016Z,26.60
2019-04-25T13:29:45.090Z,26.60
2019-04-25T13:32:42.673Z,26.60
2019-04-25T13:35:20.769Z,26.70
2019-04-25T13:37:50.149Z,26.70
2019-04-25T13:40:21.653Z,26.70
2019-04-25T13:42:53.098Z,26.80
2019-04-25T13:45:26.581Z,26.80
2019-04-25T13:48:03.410Z,26.80
2019-04-25T13:50:40.916Z,26.60
2019-04-25T13:53:10.182Z,26.90
2019-04-25T13:55:44.338Z,26.80
2019-04-25T13:58:19.929Z,26.60
2019-04-25T14:00:52.028Z,26.60
2019-04-25T14:03:27.344Z,26.60
2019-04-25T14:05:58.258Z,26.60
2019-04-25T14:08:29.532Z,26.60
2019-04-25T14:11:01.124Z,26.70
2019-04-25T14:13:33.670Z,26.70
2019-04-25T14:16:43.363Z,26.70
2019-04-25T14:19:33.546Z,26.70
2019-04-25T14:22:04.343Z,26.50
2019-04-25T14:24:35.670Z,26.50
2019-04-25T14:27:05.195Z,26.50
2019-04-25T14:29:34.794Z,26.50
2019-04-25T14:32:06.389Z,26.50
2019-04-25T14:34:35.771Z,26.50
2019-04-25T14:37:05.385Z,26.50
2019-04-25T14:39:34.667Z,26.50
2019-04-25T14:42:03.953Z,26.40
2019-04-25T14:44:34.527Z,26.30
2019-04-25T14:47:06.669Z,26.30
2019-04-25T14:49:43.110Z,26.40
2019-04-25T14:52:13.953Z,26.40
2019-04-25T14:55:01.103Z,26.20
2019-04-25T14:57:31.887Z,26.20
2019-04-25T15:00:04.530Z,26.20
2019-04-25T15:02:34.207Z,26.20
2019-04-25T15:05:03.685Z,26.20
2019-04-25T15:07:32.955Z,26.20
2019-04-25T15:10:04.054Z,26.20
2019-04-25T15:12:33.882Z,26.10
2019-04-25T15:15:03.358Z,26.20
2019-04-25T15:17:43.935Z,26.20
2019-04-25T15:20:03.753Z,26.20
2019-04-25T15:22:33.110Z,26.10
2019-04-25T15:25:02.373Z,26.10
2019-04-25T15:27:31.631Z,26.00
2019-04-25T15:30:01.112Z,25.90
2019-04-25T15:32:33.165Z,25.90
2019-04-25T15:35:02.744Z,25.80
2019-04-25T15:37:37.342Z,25.80
2019-04-25T15:40:24.099Z,25.80
2019-04-25T15:43:31.458Z,25.70
2019-04-25T15:46:06.933Z,25.70
2019-04-25T15:48:36.255Z,25.60
2019-04-25T15:51:05.510Z,25.60
2019-04-25T15:53:35.130Z,25.60
2019-04-25T15:56:04.392Z,25.50
2019-04-25T15:58:33.647Z,25.50
2019-04-25T16:01:04.024Z,25.50
2019-04-25T16:03:33.289Z,25.40
2019-04-25T16:06:02.765Z,25.40
2019-04-25T16:08:32.960Z,25.40
2019-04-25T16:11:02.438Z,25.40
2019-04-25T16:13:32.289Z,25.30
2019-04-25T16:16:01.723Z,25.20
2019-04-25T16:18:30.957Z,25.20
2019-04-25T16:21:00.313Z,25.10
2019-04-25T16:23:30.258Z,25.10
2019-04-25T16:25:59.630Z,25.00
2019-04-25T16:28:28.931Z,25.00
2019-04-25T16:30:58.282Z,24.90
2019-04-25T16:33:28.987Z,24.90
2019-04-25T16:35:58.482Z,24.80
2019-04-25T16:38:29.692Z,24.80
2019-04-25T16:40:59.110Z,24.70
2019-04-25T16:43:30.188Z,24.60
2019-04-25T16:45:59.446Z,24.60
2019-04-25T16:48:28.960Z,24.50
2019-04-25T16:50:59.175Z,24.50
2019-04-25T16:53:28.551Z,24.40
2019-04-25T16:55:57.791Z,24.30
2019-04-25T16:58:27.041Z,24.20
2019-04-25T17:01:06.918Z,24.20
2019-04-25T17:03:37.394Z,24.10
2019-04-25T17:06:07.253Z,24.00
2019-04-25T17:08:37.667Z,23.90
2019-04-25T17:11:07.986Z,23.80
2019-04-25T17:13:42.633Z,23.80
2019-04-25T17:16:29.582Z,23.70
2019-04-25T17:19:03.406Z,23.50
2019-04-25T17:21:32.701Z,23.40
2019-04-25T17:24:02.013Z,23.30
2019-04-25T17:26:32.664Z,23.20
2019-04-25T17:29:04.635Z,23.10
2019-04-25T17:31:45.231Z,23.10
2019-04-25T17:34:21.797Z,23.00
2019-04-25T17:37:18.834Z,22.90
2019-04-25T17:40:00.594Z,22.80
2019-04-25T17:42:29.858Z,22.60
2019-04-25T17:44:59.141Z,22.60
2019-04-25T17:47:28.502Z,22.50
2019-04-25T17:49:57.833Z,22.40
2019-04-25T17:52:27.117Z,22.30
2019-04-25T17:54:56.381Z,22.20
2019-04-25T17:57:25.639Z,22.20
2019-04-25T17:59:54.939Z,22.10
2019-04-25T18:02:24.191Z,22.10
2019-04-25T18:04:53.564Z,22.00
2019-04-25T18:07:22.936Z,21.90
2019-04-25T18:09:52.196Z,21.90
2019-04-25T18:12:21.558Z,21.80
2019-04-25T18:14:51.526Z,21.70
2019-04-25T18:17:20.993Z,21.70
2019-04-25T18:20:04.405Z,21.60
2019-04-25T18:22:51.281Z,21.60
2019-04-25T18:25:48.547Z,21.50
2019-04-25T18:28:21.134Z,21.40
2019-04-25T18:30:50.396Z,21.40
2019-04-25T18:33:31.598Z,21.30
2019-04-25T18:36:22.486Z,21.30
2019-04-25T18:39:00.992Z,21.20
2019-04-25T18:41:37.954Z,21.10
2019-04-25T18:44:07.429Z,21.10
2019-04-25T18:46:40.407Z,21.00
2019-04-25T18:49:09.934Z,21.00
2019-04-25T18:51:39.271Z,20.90
2019-04-25T18:54:31.546Z,20.90
2019-04-25T18:57:19.798Z,20.90
2019-04-25T19:00:20.359Z,20.80
2019-04-25T19:03:07.766Z,20.70
2019-04-25T19:05:55.978Z,20.70
2019-04-25T19:08:25.278Z,20.70
2019-04-25T19:10:54.724Z,20.60
2019-04-25T19:13:24.089Z,20.60
2019-04-25T19:15:53.442Z,20.50
2019-04-25T19:18:22.707Z,20.50
2019-04-25T19:20:52.400Z,20.40
2019-04-25T19:23:21.850Z,20.40
2019-04-25T19:25:52.115Z,20.40
2019-04-25T19:28:21.537Z,20.30
2019-04-25T19:30:51.379Z,20.30
2019-04-25T19:33:34.700Z,20.30
2019-04-25T19:35:53.353Z,20.20
2019-04-25T19:38:22.713Z,20.20
2019-04-25T19:41:07.510Z,20.20
2019-04-25T19:43:54.819Z,20.10
2019-04-25T19:46:38.125Z,20.10
2019-04-25T19:49:08.289Z,20.10
2019-04-25T19:51:37.640Z,20.10
2019-04-25T19:54:07.090Z,20.00
2019-04-25T19:56:36.455Z,20.00
2019-04-25T19:59:06.031Z,20.00
2019-04-25T20:01:35.338Z,19.90
2019-04-25T20:04:13.556Z,19.90
2019-04-25T20:07:02.188Z,19.90
2019-04-25T20:10:02.316Z,19.90
2019-04-25T20:12:35.982Z,19.80
2019-04-25T20:15:05.933Z,19.80
2019-04-25T20:17:35.210Z,19.70
2019-04-25T20:20:05.055Z,19.70
2019-04-25T20:22:34.358Z,19.70
2019-04-25T20:25:03.634Z,19.60
2019-04-25T20:27:32.902Z,19.60
2019-04-25T20:30:02.441Z,19.50
2019-04-25T20:32:31.821Z,19.50
2019-04-25T20:35:01.109Z,19.50
2019-04-25T20:37:30.390Z,19.50
2019-04-25T20:39:59.678Z,19.40
2019-04-25T20:42:29.019Z,19.40
2019-04-25T20:44:58.269Z,19.30
2019-04-25T20:47:27.541Z,19.30
2019-04-25T20:49:57.577Z,19.30
2019-04-25T20:52:27.273Z,19.20
2019-04-25T20:54:56.980Z,19.20
2019-04-25T20:57:28.702Z,19.10
2019-04-25T20:59:58.127Z,19.10
2019-04-25T21:02:27.425Z,19.10
2019-04-25T21:04:56.873Z,19.10
2019-04-25T21:07:26.289Z,19.00
2019-04-25T21:09:55.549Z,19.00
2019-04-25T21:12:24.813Z,19.00
2019-04-25T21:15:15.793Z,19.00
2019-04-25T21:18:04.410Z,19.00
2019-04-25T21:20:33.680Z,18.90
2019-04-25T21:23:03.029Z,18.80
2019-04-25T21:25:32.408Z,18.80
2019-04-25T21:28:01.681Z,18.80
2019-04-25T21:30:31.013Z,18.80
2019-04-25T21:33:00.321Z,18.70
2019-04-25T21:35:29.961Z,18.70
2019-04-25T21:37:59.635Z,18.70
2019-04-25T21:40:48.066Z,18.70
2019-04-25T21:43:22.305Z,18.70
2019-04-25T21:45:51.918Z,18.70
2019-04-25T21:48:22.124Z,18.70
2019-04-25T21:50:53.480Z,18.70
2019-04-25T21:53:22.815Z,18.60
2019-04-25T21:55:53.194Z,18.60
2019-04-25T21:58:23.533Z,18.60
2019-04-25T22:01:16.639Z,18.60
2019-04-25T22:03:45.966Z,18.60
2019-04-25T22:06:17.764Z,18.50
2019-04-25T22:08:46.677Z,18.50
2019-04-25T22:11:16.061Z,18.50
2019-04-25T22:13:45.694Z,18.50
2019-04-25T22:16:15.353Z,18.50
2019-04-25T22:18:45.062Z,18.40
2019-04-25T22:21:14.601Z,18.40
2019-04-25T22:23:44.327Z,18.30
2019-04-25T22:26:13.670Z,18.30
2019-04-25T22:28:43.198Z,18.30
2019-04-25T22:31:17.537Z,18.20
2019-04-25T22:34:24.282Z,18.20
2019-04-25T22:36:53.541Z,18.20
2019-04-25T22:39:22.872Z,18.10
2019-04-25T22:41:52.513Z,18.10
2019-04-25T22:44:22.581Z,18.10
2019-04-25T22:46:52.320Z,18.10
2019-04-25T22:49:21.587Z,18.00
2019-04-25T22:51:50.963Z,18.00
2019-04-25T22:54:20.701Z,18.00
2019-04-25T22:56:50.025Z,17.90
2019-04-25T22:59:19.583Z,17.90
2019-04-25T23:02:06.543Z,17.90
2019-04-25T23:05:04.566Z,17.90
2019-04-25T23:07:25.462Z,17.80
2019-04-25T23:09:55.129Z,17.80
2019-04-25T23:12:24.763Z,17.70
2019-04-25T23:14:54.009Z,17.70
2019-04-25T23:17:23.346Z,17.70
2019-04-25T23:19:52.943Z,17.60
2019-04-25T23:22:22.197Z,17.60
2019-04-25T23:25:06.066Z,17.60
2019-04-25T23:27:53.106Z,17.50
2019-04-25T23:30:25.585Z,17.50
2019-04-25T23:32:54.847Z,17.50
2019-04-25T23:35:30.383Z,17.50
2019-04-25T23:37:55.167Z,17.50
2019-04-25T23:40:24.521Z,17.50
2019-04-25T23:42:54.057Z,17.50
2019-04-25T23:45:23.345Z,17.50
2019-04-25T23:47:52.613Z,17.40
2019-04-25T23:50:22.251Z,17.40
2019-04-25T23:52:51.557Z,17.40
2019-04-25T23:55:20.993Z,17.40
2019-04-25T23:57:50.249Z,17.40
